createdAt,value
2018-08-19T00:00:09.446Z,23.50
2018-08-19T00:02:39.426Z,23.50
2018-08-19T00:05:17.100Z,23.40
2018-08-19T00:07:48.374Z,23.40
2018-08-19T00:10:22.816Z,23.40
2018-08-19T00:12:52.711Z,23.40
2018-08-19T00:15:22.906Z,23.40
2018-08-19T00:17:53.130Z,23.40
2018-08-19T00:20:27.055Z,23.40
2018-08-19T00:22:57.919Z,23.30
2018-08-19T00:25:35.196Z,23.30
2018-08-19T00:28:07.505Z,23.30
2018-08-19T00:30:37.429Z,23.30
2018-08-19T00:33:07.507Z,23.30
2018-08-19T00:35:37.801Z,23.30
2018-08-19T00:38:11.203Z,23.30
2018-08-19T00:40:41.781Z,23.30
2018-08-19T00:43:11.906Z,23.20
2018-08-19T00:45:43.358Z,23.20
2018-08-19T00:48:13.694Z,23.10
2018-08-19T00:50:43.494Z,23.10
2018-08-19T00:53:14.499Z,23.10
2018-08-19T00:55:53.559Z,23.00
2018-08-19T00:58:23.516Z,23.00
2018-08-19T01:00:53.656Z,23.10
2018-08-19T01:03:23.588Z,23.00
2018-08-19T01:05:56.556Z,22.90
2018-08-19T01:08:27.225Z,22.90
2018-08-19T01:10:59.866Z,22.90
2018-08-19T01:13:30.742Z,22.90
2018-08-19T01:16:02.995Z,22.90
2018-08-19T01:18:33.146Z,22.90
2018-08-19T01:21:12.013Z,22.90
2018-08-19T01:23:42.114Z,22.90
2018-08-19T01:26:13.470Z,22.90
2018-08-19T01:28:44.607Z,22.90
2018-08-19T01:31:14.519Z,22.80
2018-08-19T01:33:44.553Z,22.80
2018-08-19T01:36:15.122Z,22.80
2018-08-19T01:38:46.226Z,22.80
2018-08-19T01:41:17.039Z,22.80
2018-08-19T01:43:59.089Z,22.70
2018-08-19T01:46:30.412Z,22.80
2018-08-19T01:49:00.284Z,22.70
2018-08-19T01:51:30.564Z,22.70
2018-08-19T01:54:05.847Z,22.70
2018-08-19T01:56:36.481Z,22.60
2018-08-19T01:59:07.104Z,22.60
2018-08-19T02:01:47.398Z,22.60
2018-08-19T02:04:17.975Z,22.50
2018-08-19T02:06:47.691Z,22.40
2018-08-19T02:09:18.975Z,22.40
2018-08-19T02:11:53.400Z,22.30
2018-08-19T02:14:24.053Z,22.30
2018-08-19T02:16:54.961Z,22.20
2018-08-19T02:19:25.586Z,22.20
2018-08-19T02:21:56.055Z,22.20
2018-08-19T02:24:26.131Z,22.20
2018-08-19T02:26:56.026Z,22.20
2018-08-19T02:29:35.665Z,22.20
2018-08-19T02:32:09.922Z,22.30
2018-08-19T02:34:43.857Z,22.20
2018-08-19T02:37:15.728Z,22.20
2018-08-19T02:39:47.521Z,22.20
2018-08-19T02:42:23.917Z,22.30
2018-08-19T02:44:56.842Z,22.30
2018-08-19T02:47:26.838Z,22.30
2018-08-19T02:49:57.106Z,22.20
2018-08-19T02:52:28.624Z,22.20
2018-08-19T02:55:01.622Z,22.20
2018-08-19T02:57:33.366Z,22.20
2018-08-19T03:00:03.941Z,22.20
2018-08-19T03:02:36.228Z,22.20
2018-08-19T03:05:10.357Z,22.20
2018-08-19T03:07:40.168Z,22.10
2018-08-19T03:10:12.432Z,22.10
2018-08-19T03:12:42.869Z,22.00
2018-08-19T03:15:15.557Z,22.00
2018-08-19T03:17:49.046Z,22.00
2018-08-19T03:20:19.219Z,21.90
2018-08-19T03:22:48.894Z,21.90
2018-08-19T03:25:18.749Z,21.90
2018-08-19T03:27:48.700Z,21.90
2018-08-19T03:30:18.601Z,21.90
2018-08-19T03:32:53.512Z,21.90
2018-08-19T03:35:23.791Z,21.80
2018-08-19T03:37:55.020Z,21.80
2018-08-19T03:40:27.224Z,21.80
2018-08-19T03:42:57.925Z,21.70
2018-08-19T03:45:29.598Z,21.70
2018-08-19T03:48:01.611Z,21.60
2018-08-19T03:50:32.204Z,21.60
2018-08-19T03:53:03.277Z,21.50
2018-08-19T03:55:33.870Z,21.50
2018-08-19T03:58:11.882Z,21.40
2018-08-19T04:00:46.061Z,21.40
2018-08-19T04:03:21.485Z,21.40
2018-08-19T04:05:55.351Z,21.50
2018-08-19T04:08:33.254Z,21.50
2018-08-19T04:11:05.608Z,21.50
2018-08-19T04:13:38.931Z,21.50
2018-08-19T04:16:10.208Z,21.60
2018-08-19T04:18:43.423Z,21.60
2018-08-19T04:21:17.695Z,21.60
2018-08-19T04:23:49.560Z,21.60
2018-08-19T04:26:19.357Z,21.70
2018-08-19T04:28:49.867Z,21.70
2018-08-19T04:31:24.884Z,21.80
2018-08-19T04:33:55.605Z,21.80
2018-08-19T04:36:26.102Z,21.80
2018-08-19T04:38:56.371Z,21.80
2018-08-19T04:41:27.224Z,21.80
2018-08-19T04:43:57.442Z,21.90
2018-08-19T04:46:27.697Z,21.90
2018-08-19T04:48:57.693Z,21.90
2018-08-19T04:51:28.504Z,22.00
2018-08-19T04:53:58.482Z,22.00
2018-08-19T04:56:28.561Z,22.00
2018-08-19T04:58:58.780Z,22.10
2018-08-19T05:01:29.022Z,22.10
2018-08-19T05:03:58.957Z,22.10
2018-08-19T05:06:29.202Z,22.20
2018-08-19T05:08:59.247Z,22.20
2018-08-19T05:11:29.253Z,22.20
2018-08-19T05:14:00.392Z,22.20
2018-08-19T05:16:30.523Z,22.30
2018-08-19T05:19:05.839Z,22.30
2018-08-19T05:21:36.011Z,22.40
2018-08-19T05:24:06.435Z,22.40
2018-08-19T05:26:37.049Z,22.50
2018-08-19T05:29:12.255Z,22.50
2018-08-19T05:31:48.655Z,22.60
2018-08-19T05:34:36.868Z,22.60
2018-08-19T05:37:06.687Z,22.80
2018-08-19T05:39:36.765Z,22.80
2018-08-19T05:42:13.636Z,22.90
2018-08-19T05:44:45.755Z,22.90
2018-08-19T05:47:18.096Z,23.00
2018-08-19T05:49:49.088Z,23.00
2018-08-19T05:52:23.187Z,23.00
2018-08-19T05:54:57.904Z,23.20
2018-08-19T05:57:29.139Z,23.20
2018-08-19T05:59:59.497Z,23.30
2018-08-19T06:02:34.920Z,23.30
2018-08-19T06:05:05.048Z,23.30
2018-08-19T06:07:34.862Z,23.40
2018-08-19T06:10:04.999Z,23.50
2018-08-19T06:12:34.977Z,23.60
2018-08-19T06:15:04.809Z,23.60
2018-08-19T06:17:34.508Z,23.70
2018-08-19T06:20:05.014Z,23.80
2018-08-19T06:22:41.438Z,23.80
2018-08-19T06:25:12.251Z,23.90
2018-08-19T06:27:47.935Z,24.00
2018-08-19T06:30:18.514Z,24.10
2018-08-19T06:32:48.505Z,24.20
2018-08-19T06:35:18.311Z,24.30
2018-08-19T06:37:47.979Z,24.40
2018-08-19T06:40:19.002Z,24.50
2018-08-19T06:42:48.897Z,24.60
2018-08-19T06:45:18.912Z,24.70
2018-08-19T06:47:48.829Z,24.70
2018-08-19T06:50:24.917Z,24.90
2018-08-19T06:52:55.670Z,24.90
2018-08-19T06:55:25.506Z,25.00
2018-08-19T06:57:57.178Z,25.10
2018-08-19T07:00:28.545Z,25.20
2018-08-19T07:03:02.389Z,25.20
2018-08-19T07:05:32.893Z,25.30
2018-08-19T07:08:03.499Z,25.30
2018-08-19T07:10:39.278Z,25.40
2018-08-19T07:13:11.547Z,25.50
2018-08-19T07:15:42.333Z,25.60
2018-08-19T07:18:14.499Z,25.70
2018-08-19T07:20:45.332Z,25.90
2018-08-19T07:23:16.278Z,26.00
2018-08-19T07:25:46.634Z,26.10
2018-08-19T07:28:21.850Z,26.30
2018-08-19T07:30:51.602Z,26.50
2018-08-19T07:33:21.463Z,26.60
2018-08-19T07:35:51.371Z,26.70
2018-08-19T07:38:22.077Z,27.00
2018-08-19T07:40:54.821Z,27.20
2018-08-19T07:46:10.966Z,27.90
2018-08-19T07:48:51.450Z,28.20
2018-08-19T07:51:26.207Z,28.40
2018-08-19T07:54:06.422Z,28.60
2018-08-19T07:56:48.391Z,28.80
2018-08-19T07:59:27.861Z,29.00
2018-08-19T08:02:09.745Z,29.20
2018-08-19T08:07:33.101Z,30.40
2018-08-19T08:10:07.934Z,31.20
2018-08-19T08:12:39.678Z,31.70
2018-08-19T08:15:12.388Z,32.20
2018-08-19T08:17:43.693Z,33.10
2018-08-19T08:20:23.047Z,33.90
2018-08-19T08:23:02.361Z,34.60
2018-08-19T08:25:33.119Z,35.20
2018-08-19T08:28:05.626Z,35.50
2018-08-19T08:30:37.459Z,35.90
2018-08-19T08:46:30.613Z,36.30
2018-08-19T08:49:23.079Z,38.20
2018-08-19T08:52:10.781Z,38.50
2018-08-19T08:54:58.215Z,38.90
2018-08-19T08:57:47.959Z,39.10
2018-08-19T09:00:28.758Z,39.10
2018-08-19T09:03:03.926Z,39.10
2018-08-19T09:05:43.164Z,39.40
2018-08-19T09:08:33.613Z,39.70
2018-08-19T09:11:09.216Z,39.80
2018-08-19T09:13:51.589Z,40.10
2018-08-19T09:16:31.902Z,40.40
2018-08-19T09:19:01.810Z,40.50
2018-08-19T09:21:32.861Z,40.50
2018-08-19T09:24:05.500Z,40.70
2018-08-19T09:26:42.986Z,40.60
2018-08-19T09:29:15.944Z,40.60
2018-08-19T09:31:46.572Z,40.70
2018-08-19T09:34:24.025Z,40.80
2018-08-19T09:37:15.849Z,40.90
2018-08-19T09:42:46.925Z,41.00
2018-08-19T09:54:17.395Z,41.90
2018-08-19T09:56:47.443Z,42.00
2018-08-19T09:59:21.628Z,42.10
2018-08-19T10:01:53.155Z,42.30
2018-08-19T10:04:28.045Z,42.40
2018-08-19T10:07:18.220Z,42.10
2018-08-19T10:09:53.053Z,42.20
2018-08-19T10:12:23.079Z,42.40
2018-08-19T10:14:53.393Z,42.70
2018-08-19T10:20:30.019Z,42.90
2018-08-19T10:23:02.377Z,43.10
2018-08-19T10:25:36.210Z,43.30
2018-08-19T10:28:07.904Z,43.10
2018-08-19T10:31:01.266Z,43.00
2018-08-19T10:33:33.395Z,43.20
2018-08-19T10:36:04.808Z,43.20
2018-08-19T10:38:40.469Z,43.60
2018-08-19T10:41:12.498Z,43.80
2018-08-19T10:43:44.294Z,43.90
2018-08-19T10:46:15.626Z,44.20
2018-08-19T10:48:46.138Z,44.40
2018-08-19T10:51:16.425Z,44.50
2018-08-19T10:53:51.797Z,44.60
2018-08-19T10:56:28.207Z,44.80
2018-08-19T10:59:01.667Z,44.90
2018-08-19T11:01:32.696Z,45.20
2018-08-19T11:04:03.384Z,45.30
2018-08-19T11:06:36.801Z,45.50
2018-08-19T11:09:08.807Z,45.60
2018-08-19T11:11:40.455Z,45.40
2018-08-19T11:14:15.843Z,45.50
2018-08-19T11:16:47.704Z,45.30
2018-08-19T11:19:18.763Z,45.40
2018-08-19T11:21:51.308Z,45.50
2018-08-19T11:24:27.424Z,45.60
2018-08-19T11:27:07.350Z,45.40
2018-08-19T11:29:41.318Z,45.60
2018-08-19T11:32:17.986Z,45.60
2018-08-19T11:34:52.811Z,45.80
2018-08-19T11:37:23.460Z,45.80
2018-08-19T11:39:53.863Z,45.70
2018-08-19T11:42:26.928Z,45.60
2018-08-19T11:44:57.282Z,45.60
2018-08-19T11:47:29.266Z,45.70
2018-08-19T11:49:59.754Z,45.60
2018-08-19T11:52:32.040Z,45.70
2018-08-19T11:55:03.577Z,45.50
2018-08-19T11:57:35.417Z,45.50
2018-08-19T12:00:14.588Z,45.60
2018-08-19T12:02:48.701Z,45.80
2018-08-19T12:05:27.030Z,45.80
2018-08-19T12:08:08.519Z,45.90
2018-08-19T12:10:50.126Z,46.10
2018-08-19T12:13:28.503Z,46.00
2018-08-19T12:16:05.356Z,46.10
2018-08-19T12:21:58.032Z,45.40
2018-08-19T12:24:49.927Z,45.20
2018-08-19T12:27:32.230Z,45.10
2018-08-19T12:30:13.925Z,45.00
2018-08-19T12:32:50.672Z,45.10
2018-08-19T12:35:25.966Z,45.00
2018-08-19T12:38:05.196Z,44.90
2018-08-19T12:40:47.864Z,44.90
2018-08-19T12:43:29.431Z,44.50
2018-08-19T12:48:39.593Z,44.00
2018-08-19T12:51:09.328Z,43.50
2018-08-19T12:53:39.613Z,42.70
2018-08-19T12:56:11.489Z,42.20
2018-08-19T12:58:44.942Z,41.80
2018-08-19T13:01:17.588Z,41.60
2018-08-19T13:03:47.378Z,41.40
2018-08-19T13:06:17.025Z,41.20
2018-08-19T13:08:46.441Z,41.10
2018-08-19T13:11:16.130Z,40.90
2018-08-19T13:16:53.914Z,40.60
2018-08-19T13:19:29.975Z,40.30
2018-08-19T13:22:00.094Z,40.00
2018-08-19T13:24:38.725Z,39.80
2018-08-19T13:27:10.074Z,39.50
2018-08-19T13:29:41.712Z,39.30
2018-08-19T13:32:12.148Z,38.90
2018-08-19T13:34:43.699Z,38.80
2018-08-19T13:37:13.636Z,38.70
2018-08-19T13:39:46.702Z,38.50
2018-08-19T13:45:24.613Z,38.20
2018-08-19T13:47:59.813Z,38.10
2018-08-19T13:50:50.502Z,38.10
2018-08-19T13:53:26.692Z,38.00
2018-08-19T13:56:03.318Z,37.90
2018-08-19T13:58:37.356Z,37.80
2018-08-19T14:01:15.676Z,37.70
2018-08-19T14:03:50.232Z,37.70
2018-08-19T14:06:22.976Z,37.60
2018-08-19T14:08:53.156Z,37.60
2018-08-19T14:11:30.989Z,37.50
2018-08-19T14:14:04.271Z,37.40
2018-08-19T14:16:54.851Z,37.30
2018-08-19T14:19:27.330Z,37.10
2018-08-19T14:22:02.907Z,36.90
2018-08-19T14:24:33.024Z,36.80
2018-08-19T14:27:04.522Z,36.70
2018-08-19T14:29:35.429Z,36.70
2018-08-19T14:35:29.974Z,36.60
2018-08-19T14:38:07.249Z,36.60
2018-08-19T14:40:47.690Z,36.60
2018-08-19T14:46:35.245Z,36.40
2018-08-19T14:49:18.477Z,36.30
2018-08-19T14:54:52.364Z,36.10
2018-08-19T14:57:31.138Z,35.90
2018-08-19T15:00:10.294Z,35.80
2018-08-19T17:56:51.056Z,31.30
2018-08-19T17:59:20.319Z,31.20
2018-08-19T18:01:49.512Z,31.10
2018-08-19T18:04:19.037Z,31.10
2018-08-19T18:06:49.214Z,31.00
2018-08-19T18:09:18.828Z,30.90
2018-08-19T18:12:09.018Z,30.90
2018-08-19T18:23:31.726Z,30.60
2018-08-19T18:29:20.953Z,30.50
2018-08-19T18:31:53.247Z,30.50
2018-08-19T18:34:28.023Z,30.20
2018-08-19T18:37:07.093Z,30.20
2018-08-19T18:40:16.123Z,30.10
2018-08-19T18:43:11.512Z,30.00
2018-08-19T19:02:13.848Z,29.60
2018-08-19T19:04:46.935Z,29.50
2018-08-19T19:07:24.364Z,29.40
2018-08-19T19:10:05.511Z,29.30
2018-08-19T19:12:49.191Z,29.20
2018-08-19T19:15:30.295Z,29.10
2018-08-19T19:18:24.403Z,29.00
2018-08-19T19:23:54.510Z,28.90
2018-08-19T19:26:29.203Z,28.80
2018-08-19T19:28:58.892Z,28.70
2018-08-19T19:31:28.338Z,28.70
2018-08-19T19:34:02.905Z,28.60
2018-08-19T19:36:32.665Z,28.50
2018-08-19T19:39:02.405Z,28.50
2018-08-19T19:41:32.895Z,28.40
2018-08-19T19:44:21.771Z,28.40
2018-08-19T19:46:51.339Z,28.30
2018-08-19T19:49:20.959Z,28.30
2018-08-19T19:51:55.153Z,28.30
2018-08-19T19:54:27.257Z,28.30
2018-08-19T19:56:56.741Z,28.30
2018-08-19T19:59:28.394Z,28.20
2018-08-19T20:01:57.892Z,28.20
2018-08-19T20:04:27.054Z,28.10
2018-08-19T20:06:56.689Z,28.10
2018-08-19T20:09:25.810Z,28.00
2018-08-19T20:11:55.110Z,28.00
2018-08-19T20:14:24.754Z,27.90
2018-08-19T20:16:53.990Z,27.80
2018-08-19T20:19:28.017Z,27.70
2018-08-19T20:22:04.973Z,27.70
2018-08-19T20:24:38.840Z,27.60
2018-08-19T20:27:08.420Z,27.60
2018-08-19T20:29:37.599Z,27.50
2018-08-19T20:32:06.907Z,27.50
2018-08-19T20:34:40.016Z,27.50
2018-08-19T20:37:10.908Z,27.50
2018-08-19T20:39:40.467Z,27.40
2018-08-19T20:42:09.650Z,27.40
2018-08-19T20:44:39.188Z,27.40
2018-08-19T20:47:08.616Z,27.40
2018-08-19T20:49:37.833Z,27.30
2018-08-19T20:52:08.406Z,27.30
2018-08-19T20:54:38.059Z,27.30
2018-08-19T20:57:07.817Z,27.20
2018-08-19T20:59:38.461Z,27.10
2018-08-19T21:02:09.112Z,27.10
2018-08-19T21:04:38.584Z,27.10
2018-08-19T21:07:08.205Z,27.00
2018-08-19T21:09:37.909Z,27.00
2018-08-19T21:12:07.778Z,26.90
2018-08-19T21:14:37.218Z,26.90
2018-08-19T21:17:07.173Z,26.90
2018-08-19T21:19:36.931Z,26.80
2018-08-19T21:22:06.932Z,26.70
2018-08-19T21:24:36.638Z,26.70
2018-08-19T21:27:06.396Z,26.60
2018-08-19T21:29:36.150Z,26.50
2018-08-19T21:32:06.723Z,26.50
2018-08-19T21:34:36.215Z,26.40
2018-08-19T21:37:05.743Z,26.40
2018-08-19T21:39:35.834Z,26.30
2018-08-19T21:42:05.930Z,26.30
2018-08-19T21:44:35.471Z,26.30
2018-08-19T21:47:06.345Z,26.20
2018-08-19T21:49:36.412Z,26.20
2018-08-19T21:52:06.261Z,26.10
2018-08-19T21:54:35.751Z,26.00
2018-08-19T21:57:05.796Z,25.90
2018-08-19T21:59:35.405Z,25.80
2018-08-19T22:02:05.262Z,25.80
2018-08-19T22:04:34.948Z,25.70
2018-08-19T22:07:04.981Z,25.60
2018-08-19T22:09:36.460Z,25.60
2018-08-19T22:12:08.169Z,25.50
2018-08-19T22:14:38.318Z,25.50
2018-08-19T22:17:09.637Z,25.50
2018-08-19T22:19:40.309Z,25.50
2018-08-19T22:22:10.518Z,25.40
2018-08-19T22:24:40.358Z,25.40
2018-08-19T22:27:17.767Z,25.30
2018-08-19T22:29:48.043Z,25.30
2018-08-19T22:32:18.369Z,25.30
2018-08-19T22:34:49.470Z,25.30
2018-08-19T22:37:20.522Z,25.30
2018-08-19T22:39:51.086Z,25.10
2018-08-19T22:42:21.338Z,25.00
2018-08-19T22:44:51.581Z,25.00
2018-08-19T22:47:21.651Z,25.00
2018-08-19T22:49:52.077Z,25.00
2018-08-19T22:52:24.194Z,25.00
2018-08-19T22:54:57.631Z,25.00
2018-08-19T22:57:29.250Z,25.00
2018-08-19T23:00:00.161Z,25.10
2018-08-19T23:02:32.397Z,25.10
2018-08-19T23:05:02.660Z,25.10
2018-08-19T23:07:33.042Z,25.10
2018-08-19T23:10:05.794Z,25.10
2018-08-19T23:12:55.434Z,25.10
2018-08-19T23:15:41.997Z,25.10
2018-08-19T23:18:22.198Z,25.00
2018-08-19T23:20:53.033Z,25.00
2018-08-19T23:23:26.104Z,25.00
2018-08-19T23:25:56.351Z,25.00
2018-08-19T23:28:27.333Z,25.00
2018-08-19T23:30:58.247Z,25.00
2018-08-19T23:33:29.573Z,25.00
2018-08-19T23:35:59.857Z,24.90
2018-08-19T23:38:30.781Z,25.00
2018-08-19T23:41:00.802Z,24.90
2018-08-19T23:43:31.972Z,24.90
2018-08-19T23:46:04.192Z,24.90
2018-08-19T23:48:36.438Z,24.90
2018-08-19T23:51:09.544Z,24.90
2018-08-19T23:53:50.181Z,24.90
2018-08-19T23:56:30.602Z,24.90
2018-08-19T23:59:09.560Z,24.90
